KLRD

Laredo International Airport

Laredo, Texas, USA
METAR KLRD 221956Z 01010KT 10SM OVC060 21/11 A3012 RMK AO2 SLP212 T02060106
Observed Flight Rules
Oct-22 @ 19:56 UTC (52 minutes ago) Visual Flight Rules
Wind Visibility Clouds
10° at 10 knots 10 miles
  • Overcast at 6,000' AGL
Temperatures Readings
Current 21°C / 70°F
Dewpoint 11°C / 52°F
Humidity 53%
Altimeter 30.12" Hg
Pressure 1021.2 hPa
Elevation 155
METAR KLRD 221956Z 01010KT 10SM OVC060 21/11 A3012 RMK AO2 SLP212 T02060106
Observed Flight Rules
Oct-22 @ 19:56 UTC
(52 minutes ago)
VFR
Wind Visibility
10° at 10 knots 10 miles
Clouds
  • Overcast at 6,000' AGL
Temperature Dewpoint
21°C / 70°F 11°C / 52°F
Humidity Altimeter Pressure
53% 30.12" Hg 1021.2 hPa